createdAt,value
2022-09-15T00:00:55.407Z,97094.16
2022-09-15T00:03:23.123Z,97082.25
2022-09-15T00:05:50.435Z,97070.63
2022-09-15T00:08:17.045Z,97143.84
2022-09-15T00:10:52.211Z,97189.84
2022-09-15T00:13:20.050Z,97032.09
2022-09-15T00:15:47.198Z,97210.78
2022-09-15T00:18:14.163Z,97160.34
2022-09-15T00:20:43.152Z,97208.63
2022-09-15T00:23:11.977Z,97171.34
2022-09-15T00:25:46.438Z,97079.72
2022-09-15T00:28:14.691Z,97217.19
2022-09-15T00:30:46.998Z,97218.28
2022-09-15T00:33:15.443Z,97127.69
2022-09-15T00:35:44.433Z,97218.88
2022-09-15T00:38:13.125Z,97221.94
2022-09-15T00:40:45.578Z,97210.16
2022-09-15T00:43:12.329Z,97179.09
2022-09-15T00:45:38.919Z,97075.41
2022-09-15T00:48:07.936Z,97215.50
2022-09-15T00:50:37.442Z,97175.75
2022-09-15T00:53:07.412Z,97175.09
2022-09-15T00:55:39.021Z,97217.28
2022-09-15T00:58:09.508Z,97218.19
2022-09-15T01:00:36.254Z,97208.19
2022-09-15T01:03:03.875Z,97220.56
2022-09-15T01:05:36.299Z,97224.94
2022-09-15T01:08:11.568Z,97158.78
2022-09-15T01:10:40.447Z,97226.06
2022-09-15T01:13:10.225Z,97228.81
2022-09-15T01:15:40.062Z,97236.34
2022-09-15T01:18:36.487Z,97217.38
2022-09-15T01:21:06.305Z,97225.25
2022-09-15T01:23:57.023Z,97223.00
2022-09-15T01:26:42.464Z,97223.78
2022-09-15T01:29:42.961Z,97220.19
2022-09-15T01:32:33.713Z,97143.75
2022-09-15T01:35:09.506Z,97218.88
2022-09-15T01:37:42.260Z,97148.41
2022-09-15T01:40:10.610Z,97216.22
2022-09-15T01:42:38.341Z,97183.97
2022-09-15T01:45:15.651Z,97144.19
2022-09-15T01:47:44.160Z,97190.19
2022-09-15T01:50:17.605Z,97141.75
2022-09-15T01:52:47.149Z,97205.28
2022-09-15T01:55:22.594Z,97151.22
2022-09-15T01:57:49.445Z,97214.94
2022-09-15T02:00:16.298Z,97225.50
2022-09-15T02:02:56.776Z,97177.41
2022-09-15T02:05:47.643Z,97077.31
2022-09-15T02:08:28.866Z,97155.16
2022-09-15T02:11:11.310Z,97214.44
2022-09-15T02:13:56.903Z,97215.53
2022-09-15T02:16:28.140Z,97209.00
2022-09-15T02:19:04.174Z,97211.81
2022-09-15T02:21:42.313Z,97207.13
2022-09-15T02:24:15.592Z,97159.81
2022-09-15T02:26:43.152Z,97118.00
2022-09-15T02:29:13.676Z,97148.94
2022-09-15T02:31:42.387Z,97207.00
2022-09-15T02:34:15.802Z,97116.41
2022-09-15T02:36:43.407Z,97176.13
2022-09-15T02:39:17.109Z,97201.94
2022-09-15T02:41:43.991Z,97107.13
2022-09-15T02:44:10.762Z,97192.44
2022-09-15T02:46:37.891Z,96852.13
2022-09-15T02:49:04.558Z,97156.81
2022-09-15T02:51:31.313Z,97127.47
2022-09-15T02:53:57.910Z,97109.03
2022-09-15T02:56:24.676Z,97199.06
2022-09-15T02:58:51.478Z,97127.97
2022-09-15T03:01:18.638Z,97140.78
2022-09-15T03:03:46.301Z,97208.66
2022-09-15T03:06:13.538Z,97208.34
2022-09-15T03:08:40.089Z,97117.41
2022-09-15T03:11:06.708Z,97183.59
2022-09-15T03:13:33.329Z,97186.56
2022-09-15T03:16:00.007Z,97208.97
2022-09-15T03:18:26.594Z,97112.88
2022-09-15T03:20:56.895Z,97130.66
2022-09-15T03:23:23.457Z,97126.22
2022-09-15T03:25:50.086Z,97194.38
2022-09-15T03:28:16.701Z,96973.63
2022-09-15T03:30:43.409Z,97186.41
2022-09-15T03:33:09.989Z,97144.69
2022-09-15T03:35:36.878Z,97191.34
2022-09-15T03:38:03.565Z,97159.09
2022-09-15T03:40:30.290Z,97190.03
2022-09-15T03:42:56.947Z,97181.88
2022-09-15T03:45:23.885Z,97186.16
2022-09-15T03:47:50.550Z,97237.34
2022-09-15T03:50:17.376Z,97176.03
2022-09-15T03:52:44.168Z,97202.16
2022-09-15T03:55:10.786Z,97087.97
2022-09-15T03:57:37.445Z,97203.00
2022-09-15T04:00:05.773Z,97144.41
2022-09-15T04:02:32.334Z,97191.47
2022-09-15T04:04:58.998Z,97168.72
2022-09-15T04:07:26.085Z,97109.06
2022-09-15T04:09:52.729Z,97128.72
2022-09-15T04:12:19.329Z,97197.19
2022-09-15T04:14:46.318Z,97205.16
2022-09-15T04:17:12.873Z,97215.78
2022-09-15T04:19:39.604Z,97177.31
2022-09-15T04:22:06.349Z,97180.34
2022-09-15T04:24:33.014Z,97110.69
2022-09-15T04:26:59.669Z,97106.66
2022-09-15T04:29:26.579Z,97206.47
2022-09-15T04:31:53.209Z,97124.72
2022-09-15T04:34:19.994Z,97095.03
2022-09-15T04:36:46.638Z,97016.59
2022-09-15T04:39:13.337Z,97091.81
2022-09-15T04:41:40.070Z,97207.72
2022-09-15T04:44:06.715Z,97182.66
2022-09-15T04:46:33.404Z,97161.44
2022-09-15T04:49:00.485Z,97209.91
2022-09-15T04:51:27.047Z,97212.31
2022-09-15T04:53:54.162Z,97180.66
2022-09-15T04:56:23.315Z,97189.50
2022-09-15T04:58:52.826Z,97247.34
2022-09-15T05:01:25.601Z,97242.97
2022-09-15T05:03:52.462Z,97185.56
2022-09-15T05:06:21.618Z,97137.13
2022-09-15T05:08:53.831Z,97118.59
2022-09-15T05:11:21.159Z,97203.09
2022-09-15T05:13:48.086Z,97201.75
2022-09-15T05:16:18.626Z,97249.66
2022-09-15T05:18:47.249Z,97255.78
2022-09-15T05:21:15.855Z,97156.78
2022-09-15T05:23:42.653Z,97259.88
2022-09-15T05:26:13.404Z,97105.28
2022-09-15T05:28:40.829Z,97230.91
2022-09-15T05:31:20.852Z,97273.22
2022-09-15T05:33:49.193Z,97196.06
2022-09-15T05:36:16.732Z,97278.78
2022-09-15T05:38:44.634Z,97190.44
2022-09-15T05:41:13.037Z,97269.66
2022-09-15T05:43:40.096Z,97088.47
2022-09-15T05:46:08.053Z,97272.66
2022-09-15T05:48:35.232Z,97243.94
2022-09-15T05:51:02.941Z,97277.59
2022-09-15T05:53:30.826Z,97282.34
2022-09-15T05:55:59.340Z,97273.31
2022-09-15T05:58:26.711Z,97280.44
2022-09-15T06:00:54.113Z,97257.34
2022-09-15T06:03:21.826Z,97291.59
2022-09-15T06:05:48.549Z,97187.34
2022-09-15T06:08:16.135Z,97193.78
2022-09-15T06:10:42.730Z,97227.00
2022-09-15T06:13:09.371Z,97099.91
2022-09-15T06:15:36.006Z,97194.03
2022-09-15T06:18:02.622Z,97195.53
2022-09-15T06:20:29.208Z,97178.00
2022-09-15T06:22:55.949Z,97235.41
2022-09-15T06:25:22.532Z,97119.56
2022-09-15T06:27:49.667Z,97200.09
2022-09-15T06:30:16.527Z,97234.03
2022-09-15T06:32:47.521Z,97241.03
2022-09-15T06:35:15.608Z,97287.72
2022-09-15T06:37:42.258Z,97196.06
2022-09-15T06:40:09.470Z,97274.66
2022-09-15T06:44:25.383Z,97285.38
2022-09-15T06:46:52.048Z,97295.00
2022-09-15T06:49:18.983Z,97308.03
2022-09-15T06:51:45.895Z,97310.25
2022-09-15T06:54:12.479Z,97317.38
2022-09-15T06:56:39.189Z,97291.34
2022-09-15T06:59:06.133Z,97333.09
2022-09-15T07:01:33.374Z,97328.66
2022-09-15T07:04:01.266Z,97331.78
2022-09-15T07:06:30.168Z,97330.53
2022-09-15T07:08:57.504Z,97295.78
2022-09-15T07:11:25.166Z,97343.81
2022-09-15T07:13:52.230Z,97322.72
2022-09-15T07:16:20.327Z,97343.00
2022-09-15T07:18:48.217Z,97335.06
2022-09-15T07:21:18.493Z,97345.22
2022-09-15T07:23:46.013Z,97340.28
2022-09-15T07:26:12.737Z,97339.03
2022-09-15T07:28:41.370Z,97343.06
2022-09-15T07:31:10.951Z,97334.78
2022-09-15T07:33:38.276Z,97337.97
2022-09-15T07:36:06.935Z,97344.91
2022-09-15T07:38:34.883Z,97229.72
2022-09-15T07:41:06.762Z,97341.91
2022-09-15T07:43:33.811Z,97349.03
2022-09-15T07:46:00.948Z,97348.00
2022-09-15T07:48:27.995Z,97347.09
2022-09-15T07:50:54.778Z,97350.66
2022-09-15T07:53:22.040Z,97343.28
2022-09-15T07:55:58.410Z,97331.19
2022-09-15T07:58:25.092Z,97347.34
2022-09-15T08:00:51.854Z,97341.19
2022-09-15T08:03:18.704Z,97330.50
2022-09-15T08:05:45.976Z,97287.53
2022-09-15T08:08:13.273Z,97356.31
2022-09-15T08:10:40.599Z,97325.88
2022-09-15T08:13:07.929Z,97363.66
2022-09-15T08:15:36.423Z,97363.94
2022-09-15T08:18:03.493Z,97368.06
2022-09-15T08:20:30.088Z,97377.81
2022-09-15T08:22:56.867Z,97364.47
2022-09-15T08:25:23.490Z,97377.59
2022-09-15T08:27:50.240Z,97367.53
2022-09-15T08:30:18.270Z,97372.44
2022-09-15T08:32:44.917Z,97377.72
2022-09-15T08:35:11.539Z,97385.59
2022-09-15T08:37:39.582Z,97377.63
2022-09-15T08:40:07.329Z,97383.00
2022-09-15T08:42:34.063Z,97388.84
2022-09-15T08:45:07.442Z,97388.44
2022-09-15T08:47:39.468Z,97384.72
2022-09-15T08:50:29.356Z,97383.97
2022-09-15T08:53:05.017Z,97391.28
2022-09-15T08:55:43.654Z,97392.75
2022-09-15T08:58:19.596Z,97395.75
2022-09-15T09:00:49.301Z,97390.41
2022-09-15T09:03:32.167Z,97387.72
2022-09-15T09:06:21.668Z,97385.31
2022-09-15T09:08:48.266Z,97389.53
2022-09-15T09:11:36.765Z,97394.16
2022-09-15T09:14:16.398Z,97390.19
2022-09-15T09:17:16.536Z,97397.03
2022-09-15T09:20:01.456Z,97390.19
2022-09-15T09:22:35.275Z,97389.69
2022-09-15T09:25:21.151Z,97393.72
2022-09-15T09:27:50.782Z,97377.44
2022-09-15T09:30:22.849Z,97383.41
2022-09-15T09:33:10.813Z,97377.72
2022-09-15T09:35:45.144Z,97376.19
2022-09-15T09:38:18.709Z,97373.31
2022-09-15T09:40:45.735Z,97382.28
2022-09-15T09:43:12.488Z,97364.63
2022-09-15T09:45:39.206Z,97378.22
2022-09-15T09:48:26.976Z,97383.38
2022-09-15T09:50:53.994Z,97369.31
2022-09-15T09:53:32.697Z,97389.69
2022-09-15T09:56:17.011Z,97373.88
2022-09-15T09:58:44.787Z,97379.38
2022-09-15T10:01:19.536Z,97373.03
2022-09-15T10:03:50.389Z,97372.38
2022-09-15T10:06:22.013Z,97377.28
2022-09-15T10:09:09.886Z,97370.06
2022-09-15T10:11:45.287Z,97372.75
2022-09-15T10:14:31.840Z,97369.03
2022-09-15T10:17:14.750Z,97367.19
2022-09-15T10:19:51.568Z,97325.94
2022-09-15T10:22:30.157Z,97368.56
2022-09-15T10:24:58.267Z,97331.25
2022-09-15T10:27:27.908Z,97351.53
2022-09-15T10:29:55.722Z,97359.81
2022-09-15T10:32:25.545Z,97357.56
2022-09-15T10:35:04.826Z,97361.03
2022-09-15T10:37:36.274Z,97351.50
2022-09-15T10:40:25.118Z,97360.94
2022-09-15T10:42:53.926Z,97360.38
2022-09-15T10:45:33.686Z,97360.81
2022-09-15T10:48:15.886Z,97362.56
2022-09-15T10:50:45.124Z,97370.72
2022-09-15T10:53:30.839Z,97370.41
2022-09-15T10:56:13.410Z,97373.63
2022-09-15T10:59:12.022Z,97374.00
2022-09-15T11:01:56.686Z,97378.03
2022-09-15T11:04:42.844Z,97387.47
2022-09-15T11:07:27.399Z,97341.78
2022-09-15T11:10:01.699Z,97371.97
2022-09-15T11:12:48.795Z,97380.81
2022-09-15T11:15:41.215Z,97378.00
2022-09-15T11:18:29.571Z,97383.84
2022-09-15T11:21:14.437Z,97378.22
2022-09-15T11:24:03.859Z,97377.53
2022-09-15T11:26:40.062Z,97371.97
2022-09-15T11:29:20.576Z,97385.19
2022-09-15T11:31:52.209Z,97393.97
2022-09-15T11:34:28.652Z,97389.03
2022-09-15T11:37:03.637Z,97386.38
2022-09-15T11:39:41.320Z,97352.16
2022-09-15T11:42:15.935Z,97393.38
2022-09-15T11:44:44.297Z,97394.69
2022-09-15T11:47:47.882Z,97395.00
2022-09-15T11:50:25.364Z,97394.59
2022-09-15T11:53:03.553Z,97394.16
2022-09-15T11:55:30.239Z,97397.59
2022-09-15T11:58:09.506Z,97396.13
2022-09-15T12:00:44.129Z,97395.94
2022-09-15T12:03:21.989Z,97398.69
2022-09-15T12:06:00.061Z,97399.66
2022-09-15T12:08:36.088Z,97397.56
2022-09-15T12:11:08.436Z,97395.00
2022-09-15T12:13:36.871Z,97390.41
2022-09-15T12:16:03.916Z,97398.03
2022-09-15T12:18:41.705Z,97400.00
2022-09-15T12:21:16.601Z,97362.78
2022-09-15T12:24:08.562Z,97402.41
2022-09-15T12:26:36.006Z,97410.88
2022-09-15T12:29:24.256Z,97402.72
2022-09-15T12:32:29.486Z,97403.88
2022-09-15T12:35:28.240Z,97404.75
2022-09-15T12:37:57.823Z,97403.91
2022-09-15T12:40:30.687Z,97410.16
2022-09-15T12:42:57.636Z,97402.59
2022-09-15T12:45:31.005Z,97403.47
2022-09-15T12:48:05.000Z,97405.66
2022-09-15T12:50:36.128Z,97340.41
2022-09-15T12:53:25.175Z,97406.44
2022-09-15T12:55:53.367Z,97408.50
2022-09-15T12:58:33.371Z,97403.66
2022-09-15T13:01:18.956Z,97398.16
2022-09-15T13:03:46.604Z,97399.66
2022-09-15T13:06:30.610Z,97392.59
2022-09-15T13:09:03.390Z,97417.97
2022-09-15T13:11:49.393Z,97405.09
2022-09-15T13:14:32.850Z,97408.75
2022-09-15T13:17:07.096Z,97406.72
2022-09-15T13:19:33.731Z,97404.78
2022-09-15T13:22:06.513Z,97414.63
2022-09-15T13:24:46.393Z,97407.34
2022-09-15T13:27:17.281Z,97400.84
2022-09-15T13:30:02.853Z,97419.41
2022-09-15T13:32:50.895Z,97417.47
2022-09-15T13:35:36.371Z,97413.03
2022-09-15T13:38:40.445Z,97415.38
2022-09-15T13:41:22.349Z,97412.66
2022-09-15T13:44:07.012Z,97409.97
2022-09-15T13:47:01.401Z,97402.19
2022-09-15T13:49:30.955Z,97405.91
2022-09-15T13:52:03.240Z,97399.66
2022-09-15T13:54:29.868Z,97407.84
2022-09-15T13:57:01.514Z,97389.41
2022-09-15T13:59:33.430Z,97388.50
2022-09-15T14:02:00.863Z,97392.16
2022-09-15T14:04:31.509Z,97398.03
2022-09-15T14:07:01.310Z,97388.19
2022-09-15T14:09:34.365Z,97389.72
2022-09-15T14:12:09.381Z,97401.66
2022-09-15T14:14:40.809Z,97388.06
2022-09-15T14:17:24.400Z,97391.78
2022-09-15T14:19:54.198Z,97395.75
2022-09-15T14:22:23.536Z,97390.63
2022-09-15T14:24:50.764Z,97389.22
2022-09-15T14:27:22.314Z,97315.84
2022-09-15T14:29:51.250Z,97395.81
2022-09-15T14:32:18.034Z,97392.34
2022-09-15T14:34:45.453Z,97397.34
2022-09-15T14:37:24.886Z,97405.16
2022-09-15T14:39:52.657Z,97401.69
2022-09-15T14:42:23.373Z,97399.66
2022-09-15T14:47:39.435Z,97400.28
2022-09-15T14:50:19.614Z,97391.34
2022-09-15T14:53:18.718Z,97386.94
2022-09-15T14:55:52.247Z,97382.75
2022-09-15T14:58:33.260Z,97392.16
2022-09-15T15:01:17.925Z,97383.31
2022-09-15T15:03:54.399Z,97389.69
2022-09-15T15:06:30.337Z,97393.91
2022-09-15T15:09:06.089Z,97382.06
2022-09-15T15:11:35.478Z,97396.84
2022-09-15T15:14:03.679Z,97389.19
2022-09-15T15:16:31.718Z,97390.22
2022-09-15T15:18:58.517Z,97387.28
2022-09-15T15:21:37.294Z,97392.78
2022-09-15T15:24:12.921Z,97390.31
2022-09-15T15:26:42.004Z,97384.59
2022-09-15T15:29:39.014Z,97385.97
2022-09-15T15:32:11.447Z,97347.41
2022-09-15T15:34:38.794Z,97388.56
2022-09-15T15:37:16.387Z,97351.09
2022-09-15T15:39:46.057Z,97393.75
2022-09-15T15:42:16.008Z,97388.09
2022-09-15T15:45:21.620Z,97397.44
2022-09-15T15:47:48.627Z,97401.31
2022-09-15T15:50:18.133Z,97396.88
2022-09-15T15:52:44.799Z,97404.69
2022-09-15T15:55:39.429Z,97407.81
2022-09-15T15:58:06.132Z,97385.38
2022-09-15T16:00:53.645Z,97393.41
2022-09-15T16:03:21.417Z,97373.59
2022-09-15T16:05:53.310Z,97395.00
2022-09-15T16:08:44.356Z,97396.75
2022-09-15T16:11:14.895Z,97395.50
2022-09-15T16:13:41.839Z,97401.44
2022-09-15T16:16:19.110Z,97404.47
2022-09-15T16:18:46.631Z,97393.75
2022-09-15T16:21:35.317Z,97401.28
2022-09-15T16:24:03.293Z,97405.00
2022-09-15T16:26:29.868Z,97404.28
2022-09-15T16:28:56.916Z,97416.19
2022-09-15T16:31:23.779Z,97410.97
2022-09-15T16:33:50.494Z,97406.22
2022-09-15T16:36:17.647Z,97416.84
2022-09-15T16:38:45.130Z,97410.97
2022-09-15T16:41:20.746Z,97410.31
2022-09-15T16:43:47.576Z,97411.28
2022-09-15T16:46:14.478Z,97408.78
2022-09-15T16:48:44.020Z,97404.28
2022-09-15T16:51:27.101Z,97414.00
2022-09-15T16:53:58.261Z,97386.00
2022-09-15T16:56:24.928Z,97412.25
2022-09-15T16:58:54.773Z,97395.56
2022-09-15T17:01:24.100Z,97407.00
2022-09-15T17:03:50.919Z,97406.69
2022-09-15T17:06:17.609Z,97404.66
2022-09-15T17:08:44.994Z,97398.97
2022-09-15T17:11:16.706Z,97418.25
2022-09-15T17:13:44.712Z,97413.59
2022-09-15T17:16:13.687Z,97415.94
2022-09-15T17:18:40.668Z,97384.94
2022-09-15T17:21:10.419Z,97423.94
2022-09-15T17:23:40.460Z,97426.75
2022-09-15T17:26:11.375Z,97423.50
2022-09-15T17:28:38.111Z,97420.69
2022-09-15T17:31:11.898Z,97427.53
2022-09-15T17:33:38.775Z,97415.84
2022-09-15T17:36:05.539Z,97425.47
2022-09-15T17:38:32.317Z,97422.84
2022-09-15T17:40:58.916Z,97414.38
2022-09-15T17:43:28.720Z,97419.06
2022-09-15T17:45:55.587Z,97419.97
2022-09-15T17:48:23.330Z,97402.28
2022-09-15T17:50:50.356Z,97417.91
2022-09-15T17:53:18.363Z,97412.72
2022-09-15T17:55:44.941Z,97389.63
2022-09-15T17:58:11.857Z,97403.38
2022-09-15T18:00:40.454Z,97412.91
2022-09-15T18:03:27.629Z,97421.22
2022-09-15T18:05:57.246Z,97419.44
2022-09-15T18:08:24.254Z,97389.84
2022-09-15T18:10:51.163Z,97425.22
2022-09-15T18:13:20.390Z,97380.75
2022-09-15T18:15:48.188Z,97423.19
2022-09-15T18:18:20.072Z,97425.50
2022-09-15T18:20:47.510Z,97432.16
2022-09-15T18:23:16.549Z,97430.66
2022-09-15T18:25:44.000Z,97429.63
2022-09-15T18:28:10.993Z,97427.22
2022-09-15T18:30:41.093Z,97448.91
2022-09-15T18:33:14.183Z,97447.75
2022-09-15T18:35:41.987Z,97461.00
2022-09-15T18:38:09.513Z,97444.88
2022-09-15T18:40:36.470Z,97459.72
2022-09-15T18:43:03.217Z,97441.75
2022-09-15T18:45:29.916Z,97467.44
2022-09-15T18:47:56.543Z,97459.28
2022-09-15T18:50:24.192Z,97460.19
2022-09-15T18:52:50.845Z,97456.94
2022-09-15T18:55:19.488Z,97457.41
2022-09-15T18:57:46.361Z,97470.22
2022-09-15T19:00:18.080Z,97466.19
2022-09-15T19:02:45.392Z,97468.56
2022-09-15T19:05:13.131Z,97469.16
2022-09-15T19:07:39.782Z,97469.91
2022-09-15T19:10:07.535Z,97475.84
2022-09-15T19:12:38.151Z,97477.59
2022-09-15T19:15:10.668Z,97484.56
2022-09-15T19:17:39.149Z,97446.31
2022-09-15T19:20:07.753Z,97483.56
2022-09-15T19:22:35.544Z,97493.53
2022-09-15T19:25:02.257Z,97470.25
2022-09-15T19:27:29.150Z,97487.06
2022-09-15T19:29:55.847Z,97458.69
2022-09-15T19:32:23.189Z,97485.44
2022-09-15T19:34:50.303Z,97485.09
2022-09-15T19:37:19.416Z,97495.72
2022-09-15T19:39:47.194Z,97493.28
2022-09-15T19:44:42.094Z,97496.78
2022-09-15T19:47:09.278Z,97493.75
2022-09-15T19:49:36.016Z,97495.84
2022-09-15T19:52:02.838Z,97502.91
2022-09-15T19:54:30.606Z,97511.53
2022-09-15T19:56:57.931Z,97493.41
2022-09-15T19:59:30.178Z,97502.25
2022-09-15T20:01:58.267Z,97500.66
2022-09-15T20:04:24.967Z,97511.78
2022-09-15T20:06:51.678Z,97505.19
2022-09-15T20:09:18.496Z,97504.75
2022-09-15T20:11:45.682Z,97498.03
2022-09-15T20:14:12.420Z,97508.22
2022-09-15T20:16:39.397Z,97510.06
2022-09-15T20:19:06.337Z,97517.09
2022-09-15T20:21:51.637Z,97514.22
2022-09-15T20:24:20.071Z,97511.56
2022-09-15T20:26:47.011Z,97513.16
2022-09-15T20:29:13.920Z,97518.13
2022-09-15T20:31:41.081Z,97520.19
2022-09-15T20:34:07.947Z,97512.94
2022-09-15T20:36:36.510Z,97515.41
2022-09-15T20:39:06.262Z,97509.28
2022-09-15T20:41:32.849Z,97522.31
2022-09-15T20:43:59.850Z,97518.00
2022-09-15T20:46:27.135Z,97518.16
2022-09-15T20:48:53.833Z,97507.75
2022-09-15T20:51:23.294Z,97521.09
2022-09-15T20:53:55.229Z,97520.66
2022-09-15T20:56:24.968Z,97482.63
2022-09-15T20:58:53.062Z,97509.84
2022-09-15T21:01:22.854Z,97516.66
2022-09-15T21:03:50.350Z,97524.34
2022-09-15T21:06:22.639Z,97474.78
2022-09-15T21:08:50.346Z,97439.97
2022-09-15T21:11:19.002Z,97498.25
2022-09-15T21:13:47.038Z,97499.53
2022-09-15T21:16:19.492Z,97509.88
2022-09-15T21:18:46.773Z,97496.47
2022-09-15T21:21:17.713Z,97520.59
2022-09-15T21:23:49.576Z,97524.97
2022-09-15T21:26:18.619Z,97530.66
2022-09-15T21:28:45.867Z,97530.63
2022-09-15T21:31:15.128Z,97530.84
2022-09-15T21:33:42.092Z,97535.13
2022-09-15T21:36:15.314Z,97545.56
2022-09-15T21:38:42.628Z,97522.56
2022-09-15T21:41:11.823Z,97546.34
2022-09-15T21:43:40.417Z,97549.97
2022-09-15T21:46:11.600Z,97555.38
2022-09-15T21:48:38.892Z,97538.75
2022-09-15T21:51:07.022Z,97535.63
2022-09-15T21:53:34.008Z,97523.94
2022-09-15T21:56:05.944Z,97549.72
2022-09-15T21:58:32.859Z,97531.56
2022-09-15T22:01:09.577Z,97515.53
2022-09-15T22:03:36.384Z,97552.25
2022-09-15T22:06:03.797Z,97529.72
2022-09-15T22:08:30.531Z,97553.53
2022-09-15T22:11:00.350Z,97564.16
2022-09-15T22:13:27.230Z,97561.13
2022-09-15T22:16:00.600Z,97562.66
2022-09-15T22:18:27.581Z,97555.38
2022-09-15T22:21:16.112Z,97584.25
2022-09-15T22:23:44.785Z,97595.16
2022-09-15T22:26:16.367Z,97588.31
2022-09-15T22:28:43.505Z,97581.06
2022-09-15T22:31:12.546Z,97579.78
2022-09-15T22:33:40.084Z,97575.25
2022-09-15T22:36:14.657Z,97576.19
2022-09-15T22:38:41.673Z,97533.34
2022-09-15T22:41:10.828Z,97571.88
2022-09-15T22:43:38.189Z,97566.34
2022-09-15T22:46:06.095Z,97556.06
2022-09-15T22:48:33.276Z,97552.94
2022-09-15T22:51:00.171Z,97549.03
2022-09-15T22:53:27.212Z,97558.16
2022-09-15T22:56:05.881Z,97556.44
2022-09-15T22:58:33.851Z,97542.31
2022-09-15T23:01:09.222Z,97566.84
2022-09-15T23:03:37.022Z,97559.31
2022-09-15T23:06:04.622Z,97545.16
2022-09-15T23:08:32.666Z,97564.88
2022-09-15T23:11:12.450Z,97571.03
2022-09-15T23:13:40.342Z,97568.53
2022-09-15T23:16:08.274Z,97562.31
2022-09-15T23:18:36.240Z,97559.09
2022-09-15T23:21:06.311Z,97567.50
2022-09-15T23:23:35.026Z,97574.22
2022-09-15T23:26:02.367Z,97557.28
2022-09-15T23:28:30.825Z,97557.28
2022-09-15T23:30:58.831Z,97574.78
2022-09-15T23:33:27.609Z,97517.81
2022-09-15T23:35:54.420Z,97559.81
2022-09-15T23:38:22.342Z,97566.47
2022-09-15T23:40:49.549Z,97567.28
2022-09-15T23:43:17.237Z,97558.00
2022-09-15T23:45:45.058Z,97565.66
2022-09-15T23:48:13.131Z,97563.06
2022-09-15T23:50:40.857Z,97556.75
2022-09-15T23:53:07.990Z,97561.59
2022-09-15T23:55:34.793Z,97569.00
2022-09-15T23:58:01.844Z,97547.13
